aviador You're here:

KRDG Decoded Metar

READING in PA, USA
Report Time2018-04-24 17:54:00
UTC Time2018-04-24 18:33:44
Flight Rules vfr VFR
Wind130° at 13 Gusting to 19 kt
W.Decomp.*RWY 13: 12.7 kt HW 2.7 kt RCW
RWY 18: 10.2 kt HW 8 kt LCW
W.Rank130° ranks 27
Current wind is above 130° avg. (5.5)
Visibility9999 m
Phenomena:N/A
Clouds:Broken 060 Hf
Expected CloudBase > 4,800 ft AGL from Temp-Dew spread
Ceiling6,000 ft
Temp18°C (ISA +4)
Dew Point06°C (46% RH)
AAT12.4°C
QNH1024 hPa
Density Alt554 ft
Elevation358 ft
Report Wrong Elevation
Raw Report
KRDG 241754Z 13013G19KT 10SM BKN060 18/06 A3023 RMK AO2 SLP243
60000 T01780061 10189 20122 56024=

Extra information for KRDG:More info

Metar Taf Metar & Taf Last 4 Metars F.Rules Stats Wind Profile Meteogram Temp Stats Airport Information Weather charts Add Link Nearby VenuesMetar ALERT Operation Metar Decoded Social comments

AIRNAV info for KRDG